sensor_id;sensor_type;location;lat;lon;timestamp;P1;durP1;ratioP1;P2;durP2;ratioP2
45382;SDS011;42455;51.660;5.824;2023-08-12T00:03:18;19.0;;;17.5;;
45382;SDS011;42455;51.660;5.824;2023-08-12T00:08:24;21.0;;;18.0;;
45382;SDS011;42455;51.660;5.824;2023-08-12T00:13:30;20.0;;;18.0;;
45382;SDS011;42455;51.660;5.824;2023-08-12T00:18:37;21.0;;;19.0;;
45382;SDS011;42455;51.660;5.824;2023-08-12T00:23:43;20.0;;;18.0;;
45382;SDS011;42455;51.660;5.824;2023-08-12T00:28:49;21.0;;;19.0;;
45382;SDS011;42455;51.660;5.824;2023-08-12T00:33:55;21.0;;;19.0;;
45382;SDS011;42455;51.660;5.824;2023-08-12T00:39:02;21.0;;;19.0;;
45382;SDS011;42455;51.660;5.824;2023-08-12T00:44:08;21.5;;;19.5;;
45382;SDS011;42455;51.660;5.824;2023-08-12T00:49:14;21.5;;;19.0;;
45382;SDS011;42455;51.660;5.824;2023-08-12T00:54:20;23.0;;;21.0;;
45382;SDS011;42455;51.660;5.824;2023-08-12T00:59:26;24.0;;;22.0;;
45382;SDS011;42455;51.660;5.824;2023-08-12T01:04:33;25.0;;;23.0;;
45382;SDS011;42455;51.660;5.824;2023-08-12T01:09:39;25.0;;;23.0;;
45382;SDS011;42455;51.660;5.824;2023-08-12T01:14:49;26.5;;;24.0;;
45382;SDS011;42455;51.660;5.824;2023-08-12T01:19:51;25.5;;;23.0;;
45382;SDS011;42455;51.660;5.824;2023-08-12T01:24:57;27.0;;;24.0;;
45382;SDS011;42455;51.660;5.824;2023-08-12T01:30:04;27.0;;;24.0;;
45382;SDS011;42455;51.660;5.824;2023-08-12T01:35:19;27.0;;;24.0;;
45382;SDS011;42455;51.660;5.824;2023-08-12T01:40:16;26.0;;;24.0;;
45382;SDS011;42455;51.660;5.824;2023-08-12T01:45:22;25.0;;;22.5;;
45382;SDS011;42455;51.660;5.824;2023-08-12T01:50:28;26.0;;;24.0;;
45382;SDS011;42455;51.660;5.824;2023-08-12T01:55:35;26.0;;;23.0;;
45382;SDS011;42455;51.660;5.824;2023-08-12T02:00:41;25.0;;;23.0;;
45382;SDS011;42455;51.660;5.824;2023-08-12T02:05:47;25.0;;;22.0;;
45382;SDS011;42455;51.660;5.824;2023-08-12T02:10:53;25.0;;;22.0;;
45382;SDS011;42455;51.660;5.824;2023-08-12T02:16:00;23.0;;;20.5;;
45382;SDS011;42455;51.660;5.824;2023-08-12T02:21:06;21.0;;;19.0;;
45382;SDS011;42455;51.660;5.824;2023-08-12T02:26:12;20.0;;;18.0;;
45382;SDS011;42455;51.660;5.824;2023-08-12T02:31:18;19.0;;;17.0;;
45382;SDS011;42455;51.660;5.824;2023-08-12T02:36:24;20.0;;;18.0;;
45382;SDS011;42455;51.660;5.824;2023-08-12T02:41:31;19.0;;;17.0;;
45382;SDS011;42455;51.660;5.824;2023-08-12T02:46:37;19.5;;;17.5;;
45382;SDS011;42455;51.660;5.824;2023-08-12T02:51:43;19.0;;;17.0;;
45382;SDS011;42455;51.660;5.824;2023-08-12T02:56:49;19.0;;;17.0;;
45382;SDS011;42455;51.660;5.824;2023-08-12T03:01:55;19.0;;;17.0;;
45382;SDS011;42455;51.660;5.824;2023-08-12T03:07:02;20.0;;;18.0;;
45382;SDS011;42455;51.660;5.824;2023-08-12T03:12:08;20.0;;;18.0;;
45382;SDS011;42455;51.660;5.824;2023-08-12T03:17:14;21.0;;;19.0;;
45382;SDS011;42455;51.660;5.824;2023-08-12T03:22:20;22.0;;;19.0;;
45382;SDS011;42455;51.660;5.824;2023-08-12T03:27:26;22.0;;;19.0;;
45382;SDS011;42455;51.660;5.824;2023-08-12T03:32:33;21.0;;;19.0;;
45382;SDS011;42455;51.660;5.824;2023-08-12T03:37:38;22.0;;;19.0;;
45382;SDS011;42455;51.660;5.824;2023-08-12T03:42:44;22.0;;;19.5;;
45382;SDS011;42455;51.660;5.824;2023-08-12T03:47:50;23.0;;;20.0;;
45382;SDS011;42455;51.660;5.824;2023-08-12T03:52:56;22.0;;;20.0;;
45382;SDS011;42455;51.660;5.824;2023-08-12T03:58:03;22.0;;;19.0;;
45382;SDS011;42455;51.660;5.824;2023-08-12T04:03:09;22.0;;;20.0;;
45382;SDS011;42455;51.660;5.824;2023-08-12T04:08:14;22.0;;;20.0;;
45382;SDS011;42455;51.660;5.824;2023-08-12T04:13:20;21.0;;;19.0;;
45382;SDS011;42455;51.660;5.824;2023-08-12T04:18:27;21.0;;;19.0;;
45382;SDS011;42455;51.660;5.824;2023-08-12T04:23:33;21.0;;;18.5;;
45382;SDS011;42455;51.660;5.824;2023-08-12T04:28:39;20.0;;;18.0;;
45382;SDS011;42455;51.660;5.824;2023-08-12T04:33:45;19.0;;;17.0;;
45382;SDS011;42455;51.660;5.824;2023-08-12T04:38:51;19.0;;;17.0;;
45382;SDS011;42455;51.660;5.824;2023-08-12T04:43:58;18.0;;;16.0;;
45382;SDS011;42455;51.660;5.824;2023-08-12T04:49:04;19.0;;;17.0;;
45382;SDS011;42455;51.660;5.824;2023-08-12T04:54:10;18.0;;;16.0;;
45382;SDS011;42455;51.660;5.824;2023-08-12T04:59:16;17.0;;;15.0;;
45382;SDS011;42455;51.660;5.824;2023-08-12T05:04:23;17.0;;;16.0;;
45382;SDS011;42455;51.660;5.824;2023-08-12T05:09:29;18.0;;;16.0;;
45382;SDS011;42455;51.660;5.824;2023-08-12T05:14:35;18.0;;;16.0;;
45382;SDS011;42455;51.660;5.824;2023-08-12T05:19:41;17.0;;;15.5;;
45382;SDS011;42455;51.660;5.824;2023-08-12T05:24:47;18.0;;;16.5;;
45382;SDS011;42455;51.660;5.824;2023-08-12T05:35:00;17.0;;;15.0;;
45382;SDS011;42455;51.660;5.824;2023-08-12T05:40:07;16.0;;;15.0;;
45382;SDS011;42455;51.660;5.824;2023-08-12T05:45:12;15.0;;;14.0;;
45382;SDS011;42455;51.660;5.824;2023-08-12T05:50:18;16.0;;;14.0;;
45382;SDS011;42455;51.660;5.824;2023-08-12T05:55:25;14.0;;;13.0;;
45382;SDS011;42455;51.660;5.824;2023-08-12T06:00:31;13.0;;;12.0;;
45382;SDS011;42455;51.660;5.824;2023-08-12T06:05:37;12.0;;;10.0;;
45382;SDS011;42455;51.660;5.824;2023-08-12T06:10:43;12.0;;;10.0;;
45382;SDS011;42455;51.660;5.824;2023-08-12T06:15:49;11.0;;;10.0;;
45382;SDS011;42455;51.660;5.824;2023-08-12T06:20:56;11.0;;;10.0;;
45382;SDS011;42455;51.660;5.824;2023-08-12T06:26:02;10.0;;;9.0;;
45382;SDS011;42455;51.660;5.824;2023-08-12T06:31:08;9.0;;;8.0;;
45382;SDS011;42455;51.660;5.824;2023-08-12T06:36:14;8.0;;;7.0;;
45382;SDS011;42455;51.660;5.824;2023-08-12T06:41:20;8.0;;;7.0;;
45382;SDS011;42455;51.660;5.824;2023-08-12T06:46:27;7.0;;;7.0;;
45382;SDS011;42455;51.660;5.824;2023-08-12T06:51:33;7.0;;;7.0;;
45382;SDS011;42455;51.660;5.824;2023-08-12T06:56:39;6.0;;;6.0;;
45382;SDS011;42455;51.660;5.824;2023-08-12T07:01:45;7.0;;;6.0;;
45382;SDS011;42455;51.660;5.824;2023-08-12T07:06:51;6.0;;;6.0;;
45382;SDS011;42455;51.660;5.824;2023-08-12T07:11:58;6.0;;;5.0;;
45382;SDS011;42455;51.660;5.824;2023-08-12T07:17:04;6.0;;;5.0;;
45382;SDS011;42455;51.660;5.824;2023-08-12T07:22:10;6.0;;;5.0;;
45382;SDS011;42455;51.660;5.824;2023-08-12T07:32:22;7.0;;;6.0;;
45382;SDS011;42455;51.660;5.824;2023-08-12T07:37:29;7.0;;;7.0;;
45382;SDS011;42455;51.660;5.824;2023-08-12T07:42:35;7.5;;;7.0;;
45382;SDS011;42455;51.660;5.824;2023-08-12T07:47:41;6.0;;;6.0;;
45382;SDS011;42455;51.660;5.824;2023-08-12T07:52:47;5.0;;;4.5;;
45382;SDS011;42455;51.660;5.824;2023-08-12T07:57:54;5.0;;;4.0;;
45382;SDS011;42455;51.660;5.824;2023-08-12T08:03:00;5.0;;;5.0;;
45382;SDS011;42455;51.660;5.824;2023-08-12T08:08:06;4.0;;;4.0;;
45382;SDS011;42455;51.660;5.824;2023-08-12T08:13:12;5.0;;;4.0;;
45382;SDS011;42455;51.660;5.824;2023-08-12T08:18:18;5.0;;;4.0;;
45382;SDS011;42455;51.660;5.824;2023-08-12T08:23:25;5.0;;;5.0;;
45382;SDS011;42455;51.660;5.824;2023-08-12T08:28:31;5.0;;;5.0;;
45382;SDS011;42455;51.660;5.824;2023-08-12T08:33:37;5.0;;;5.0;;
45382;SDS011;42455;51.660;5.824;2023-08-12T08:38:43;5.0;;;5.0;;
45382;SDS011;42455;51.660;5.824;2023-08-12T08:43:50;5.0;;;5.0;;
45382;SDS011;42455;51.660;5.824;2023-08-12T08:48:57;4.0;;;4.0;;
45382;SDS011;42455;51.660;5.824;2023-08-12T08:54:02;4.0;;;4.0;;
45382;SDS011;42455;51.660;5.824;2023-08-12T08:59:08;5.0;;;5.0;;
45382;SDS011;42455;51.660;5.824;2023-08-12T09:04:15;5.0;;;5.0;;
45382;SDS011;42455;51.660;5.824;2023-08-12T09:09:20;5.0;;;4.0;;
45382;SDS011;42455;51.660;5.824;2023-08-12T09:14:27;5.0;;;5.0;;
45382;SDS011;42455;51.660;5.824;2023-08-12T09:19:33;5.0;;;4.0;;
45382;SDS011;42455;51.660;5.824;2023-08-12T09:24:39;4.0;;;4.0;;
45382;SDS011;42455;51.660;5.824;2023-08-12T09:29:45;5.0;;;4.0;;
45382;SDS011;42455;51.660;5.824;2023-08-12T09:34:52;5.0;;;5.0;;
45382;SDS011;42455;51.660;5.824;2023-08-12T09:39:57;5.0;;;4.0;;
45382;SDS011;42455;51.660;5.824;2023-08-12T09:45:03;5.0;;;5.0;;
45382;SDS011;42455;51.660;5.824;2023-08-12T09:50:09;4.0;;;4.0;;
45382;SDS011;42455;51.660;5.824;2023-08-12T09:55:16;4.0;;;4.0;;
45382;SDS011;42455;51.660;5.824;2023-08-12T10:00:22;5.0;;;4.0;;
45382;SDS011;42455;51.660;5.824;2023-08-12T10:05:31;4.0;;;4.0;;
45382;SDS011;42455;51.660;5.824;2023-08-12T10:10:35;3.0;;;3.0;;
45382;SDS011;42455;51.660;5.824;2023-08-12T10:15:40;3.0;;;3.0;;
45382;SDS011;42455;51.660;5.824;2023-08-12T10:20:46;3.0;;;3.0;;
45382;SDS011;42455;51.660;5.824;2023-08-12T10:25:53;2.0;;;2.0;;
45382;SDS011;42455;51.660;5.824;2023-08-12T10:30:59;3.0;;;2.0;;
45382;SDS011;42455;51.660;5.824;2023-08-12T10:36:05;3.0;;;2.0;;
45382;SDS011;42455;51.660;5.824;2023-08-12T10:41:15;2.0;;;2.0;;
45382;SDS011;42455;51.660;5.824;2023-08-12T10:46:21;2.0;;;2.0;;
45382;SDS011;42455;51.660;5.824;2023-08-12T10:51:40;2.0;;;2.0;;
45382;SDS011;42455;51.660;5.824;2023-08-12T10:56:30;2.0;;;2.0;;
45382;SDS011;42455;51.660;5.824;2023-08-12T11:01:36;2.0;;;2.0;;
45382;SDS011;42455;51.660;5.824;2023-08-12T11:06:42;1.0;;;1.0;;
45382;SDS011;42455;51.660;5.824;2023-08-12T11:11:58;1.0;;;1.0;;
45382;SDS011;42455;51.660;5.824;2023-08-12T11:16:55;1.0;;;1.0;;
45382;SDS011;42455;51.660;5.824;2023-08-12T11:22:01;1.0;;;1.0;;
45382;SDS011;42455;51.660;5.824;2023-08-12T11:27:09;1.0;;;1.0;;
45382;SDS011;42455;51.660;5.824;2023-08-12T11:32:13;2.5;;;1.0;;
45382;SDS011;42455;51.660;5.824;2023-08-12T11:37:20;3.0;;;1.0;;
45382;SDS011;42455;51.660;5.824;2023-08-12T11:42:26;2.0;;;1.0;;
45382;SDS011;42455;51.660;5.824;2023-08-12T11:47:33;2.0;;;1.0;;
45382;SDS011;42455;51.660;5.824;2023-08-12T11:52:39;3.0;;;1.0;;
45382;SDS011;42455;51.660;5.824;2023-08-12T11:57:44;3.0;;;1.0;;
45382;SDS011;42455;51.660;5.824;2023-08-12T12:02:51;3.0;;;1.0;;
45382;SDS011;42455;51.660;5.824;2023-08-12T12:07:58;3.0;;;1.0;;
45382;SDS011;42455;51.660;5.824;2023-08-12T12:13:03;3.0;;;1.0;;
45382;SDS011;42455;51.660;5.824;2023-08-12T12:18:10;2.5;;;1.0;;
45382;SDS011;42455;51.660;5.824;2023-08-12T12:23:16;3.0;;;1.0;;
45382;SDS011;42455;51.660;5.824;2023-08-12T12:28:22;4.0;;;1.0;;
45382;SDS011;42455;51.660;5.824;2023-08-12T12:33:28;3.0;;;1.0;;
45382;SDS011;42455;51.660;5.824;2023-08-12T12:38:34;4.0;;;1.0;;
45382;SDS011;42455;51.660;5.824;2023-08-12T12:43:40;4.0;;;1.0;;
45382;SDS011;42455;51.660;5.824;2023-08-12T12:48:47;5.0;;;1.0;;
45382;SDS011;42455;51.660;5.824;2023-08-12T12:53:53;4.0;;;1.0;;
45382;SDS011;42455;51.660;5.824;2023-08-12T12:58:59;4.0;;;1.0;;
45382;SDS011;42455;51.660;5.824;2023-08-12T13:04:05;3.0;;;2.0;;
45382;SDS011;42455;51.660;5.824;2023-08-12T13:09:12;4.0;;;1.0;;
45382;SDS011;42455;51.660;5.824;2023-08-12T13:14:18;3.0;;;1.0;;
45382;SDS011;42455;51.660;5.824;2023-08-12T13:19:24;5.0;;;2.0;;
45382;SDS011;42455;51.660;5.824;2023-08-12T13:24:31;4.0;;;2.0;;
45382;SDS011;42455;51.660;5.824;2023-08-12T13:29:37;4.0;;;2.0;;
45382;SDS011;42455;51.660;5.824;2023-08-12T13:34:43;3.5;;;2.0;;
45382;SDS011;42455;51.660;5.824;2023-08-12T13:39:49;6.0;;;2.0;;
45382;SDS011;42455;51.660;5.824;2023-08-12T13:44:55;5.0;;;2.0;;
45382;SDS011;42455;51.660;5.824;2023-08-12T13:50:02;4.0;;;2.0;;
45382;SDS011;42455;51.660;5.824;2023-08-12T14:00:14;4.0;;;2.0;;
45382;SDS011;42455;51.660;5.824;2023-08-12T14:05:20;4.0;;;1.0;;
45382;SDS011;42455;51.660;5.824;2023-08-12T14:10:27;5.0;;;2.0;;
45382;SDS011;42455;51.660;5.824;2023-08-12T14:15:33;4.0;;;2.0;;
45382;SDS011;42455;51.660;5.824;2023-08-12T14:20:39;5.0;;;2.0;;
45382;SDS011;42455;51.660;5.824;2023-08-12T14:25:45;3.0;;;2.0;;
45382;SDS011;42455;51.660;5.824;2023-08-12T14:30:51;4.0;;;2.0;;
45382;SDS011;42455;51.660;5.824;2023-08-12T14:35:58;4.0;;;2.0;;
45382;SDS011;42455;51.660;5.824;2023-08-12T14:41:04;4.0;;;2.0;;
45382;SDS011;42455;51.660;5.824;2023-08-12T14:46:10;4.0;;;2.0;;
45382;SDS011;42455;51.660;5.824;2023-08-12T14:51:16;5.0;;;2.0;;
45382;SDS011;42455;51.660;5.824;2023-08-12T14:56:23;3.0;;;2.0;;
45382;SDS011;42455;51.660;5.824;2023-08-12T15:01:29;5.0;;;2.0;;
45382;SDS011;42455;51.660;5.824;2023-08-12T15:06:35;4.0;;;2.0;;
45382;SDS011;42455;51.660;5.824;2023-08-12T15:11:40;4.0;;;2.0;;
45382;SDS011;42455;51.660;5.824;2023-08-12T15:16:46;4.0;;;2.0;;
45382;SDS011;42455;51.660;5.824;2023-08-12T15:21:53;4.0;;;2.0;;
45382;SDS011;42455;51.660;5.824;2023-08-12T15:26:59;3.0;;;2.0;;
45382;SDS011;42455;51.660;5.824;2023-08-12T15:32:05;4.0;;;2.0;;
45382;SDS011;42455;51.660;5.824;2023-08-12T15:37:11;5.0;;;2.0;;
45382;SDS011;42455;51.660;5.824;2023-08-12T15:42:18;3.0;;;2.0;;
45382;SDS011;42455;51.660;5.824;2023-08-12T15:47:24;4.0;;;2.0;;
45382;SDS011;42455;51.660;5.824;2023-08-12T15:52:30;4.0;;;3.0;;
45382;SDS011;42455;51.660;5.824;2023-08-12T15:57:36;5.0;;;3.0;;
45382;SDS011;42455;51.660;5.824;2023-08-12T16:02:42;4.0;;;3.0;;
45382;SDS011;42455;51.660;5.824;2023-08-12T16:07:49;4.0;;;3.0;;
45382;SDS011;42455;51.660;5.824;2023-08-12T16:12:55;6.0;;;4.0;;
45382;SDS011;42455;51.660;5.824;2023-08-12T16:18:01;5.5;;;4.0;;
45382;SDS011;42455;51.660;5.824;2023-08-12T16:23:07;4.0;;;4.0;;
45382;SDS011;42455;51.660;5.824;2023-08-12T16:28:14;6.0;;;4.0;;
45382;SDS011;42455;51.660;5.824;2023-08-12T16:33:20;5.0;;;4.0;;
45382;SDS011;42455;51.660;5.824;2023-08-12T16:38:26;6.0;;;4.0;;
45382;SDS011;42455;51.660;5.824;2023-08-12T16:43:32;5.0;;;4.0;;
45382;SDS011;42455;51.660;5.824;2023-08-12T16:48:38;6.0;;;4.0;;
45382;SDS011;42455;51.660;5.824;2023-08-12T16:53:45;5.0;;;3.0;;
45382;SDS011;42455;51.660;5.824;2023-08-12T16:58:51;5.0;;;3.0;;
45382;SDS011;42455;51.660;5.824;2023-08-12T17:03:57;5.0;;;3.0;;
45382;SDS011;42455;51.660;5.824;2023-08-12T17:09:03;5.0;;;3.0;;
45382;SDS011;42455;51.660;5.824;2023-08-12T17:14:10;6.0;;;3.0;;
45382;SDS011;42455;51.660;5.824;2023-08-12T17:19:16;5.5;;;3.0;;
45382;SDS011;42455;51.660;5.824;2023-08-12T17:24:22;7.0;;;3.0;;
45382;SDS011;42455;51.660;5.824;2023-08-12T17:29:28;6.0;;;3.0;;
45382;SDS011;42455;51.660;5.824;2023-08-12T17:34:35;5.5;;;3.0;;
45382;SDS011;42455;51.660;5.824;2023-08-12T17:39:41;7.0;;;3.0;;
45382;SDS011;42455;51.660;5.824;2023-08-12T17:44:47;6.0;;;3.0;;
45382;SDS011;42455;51.660;5.824;2023-08-12T17:49:53;6.0;;;3.0;;
45382;SDS011;42455;51.660;5.824;2023-08-12T17:54:59;6.0;;;3.0;;
45382;SDS011;42455;51.660;5.824;2023-08-12T18:00:06;8.0;;;4.0;;
45382;SDS011;42455;51.660;5.824;2023-08-12T18:05:12;6.0;;;3.0;;
45382;SDS011;42455;51.660;5.824;2023-08-12T18:10:18;8.0;;;3.0;;
45382;SDS011;42455;51.660;5.824;2023-08-12T18:15:24;8.0;;;3.0;;
45382;SDS011;42455;51.660;5.824;2023-08-12T18:20:31;6.0;;;3.0;;
45382;SDS011;42455;51.660;5.824;2023-08-12T18:25:37;7.0;;;3.0;;
45382;SDS011;42455;51.660;5.824;2023-08-12T18:30:43;6.0;;;3.0;;
45382;SDS011;42455;51.660;5.824;2023-08-12T18:35:49;5.0;;;4.0;;
45382;SDS011;42455;51.660;5.824;2023-08-12T18:40:55;7.0;;;3.0;;
45382;SDS011;42455;51.660;5.824;2023-08-12T18:46:02;7.0;;;3.0;;
45382;SDS011;42455;51.660;5.824;2023-08-12T18:51:08;5.5;;;3.0;;
45382;SDS011;42455;51.660;5.824;2023-08-12T18:56:14;6.0;;;3.0;;
45382;SDS011;42455;51.660;5.824;2023-08-12T19:01:20;6.0;;;3.0;;
45382;SDS011;42455;51.660;5.824;2023-08-12T19:06:27;8.0;;;4.0;;
45382;SDS011;42455;51.660;5.824;2023-08-12T19:11:33;6.5;;;4.0;;
45382;SDS011;42455;51.660;5.824;2023-08-12T19:16:39;7.5;;;4.0;;
45382;SDS011;42455;51.660;5.824;2023-08-12T19:21:45;9.0;;;4.0;;
45382;SDS011;42455;51.660;5.824;2023-08-12T19:26:51;7.0;;;4.0;;
45382;SDS011;42455;51.660;5.824;2023-08-12T19:31:57;9.0;;;4.0;;
45382;SDS011;42455;51.660;5.824;2023-08-12T19:37:04;8.0;;;5.0;;
45382;SDS011;42455;51.660;5.824;2023-08-12T19:42:10;11.0;;;5.0;;
45382;SDS011;42455;51.660;5.824;2023-08-12T19:47:16;9.0;;;5.0;;
45382;SDS011;42455;51.660;5.824;2023-08-12T19:52:22;9.0;;;6.0;;
45382;SDS011;42455;51.660;5.824;2023-08-12T19:57:29;7.0;;;4.0;;
45382;SDS011;42455;51.660;5.824;2023-08-12T20:02:35;7.0;;;4.0;;
45382;SDS011;42455;51.660;5.824;2023-08-12T20:07:41;8.0;;;4.0;;
45382;SDS011;42455;51.660;5.824;2023-08-12T20:12:47;6.0;;;4.0;;
45382;SDS011;42455;51.660;5.824;2023-08-12T20:17:53;8.0;;;4.0;;
45382;SDS011;42455;51.660;5.824;2023-08-12T20:23:00;7.0;;;4.0;;
45382;SDS011;42455;51.660;5.824;2023-08-12T20:28:06;7.0;;;4.0;;
45382;SDS011;42455;51.660;5.824;2023-08-12T20:33:12;7.0;;;4.0;;
45382;SDS011;42455;51.660;5.824;2023-08-12T20:38:18;7.0;;;4.0;;
45382;SDS011;42455;51.660;5.824;2023-08-12T20:43:24;7.0;;;4.0;;
45382;SDS011;42455;51.660;5.824;2023-08-12T20:48:30;7.0;;;5.0;;
45382;SDS011;42455;51.660;5.824;2023-08-12T20:53:36;6.0;;;4.0;;
45382;SDS011;42455;51.660;5.824;2023-08-12T20:58:42;8.0;;;4.0;;
45382;SDS011;42455;51.660;5.824;2023-08-12T21:03:48;8.0;;;4.0;;
45382;SDS011;42455;51.660;5.824;2023-08-12T21:08:54;7.0;;;4.0;;
45382;SDS011;42455;51.660;5.824;2023-08-12T21:14:00;6.0;;;4.0;;
45382;SDS011;42455;51.660;5.824;2023-08-12T21:19:06;7.0;;;4.0;;
45382;SDS011;42455;51.660;5.824;2023-08-12T21:24:12;6.5;;;4.0;;
45382;SDS011;42455;51.660;5.824;2023-08-12T21:29:19;6.5;;;5.0;;
45382;SDS011;42455;51.660;5.824;2023-08-12T21:34:25;7.0;;;4.0;;
45382;SDS011;42455;51.660;5.824;2023-08-12T21:39:31;7.5;;;6.0;;
45382;SDS011;42455;51.660;5.824;2023-08-12T21:44:37;8.5;;;5.0;;
45382;SDS011;42455;51.660;5.824;2023-08-12T21:49:43;6.0;;;4.0;;
45382;SDS011;42455;51.660;5.824;2023-08-12T21:54:50;6.0;;;4.0;;
45382;SDS011;42455;51.660;5.824;2023-08-12T21:59:56;8.0;;;4.0;;
45382;SDS011;42455;51.660;5.824;2023-08-12T22:05:02;8.0;;;5.0;;
45382;SDS011;42455;51.660;5.824;2023-08-12T22:10:08;7.0;;;4.0;;
45382;SDS011;42455;51.660;5.824;2023-08-12T22:15:14;6.0;;;4.0;;
45382;SDS011;42455;51.660;5.824;2023-08-12T22:20:21;8.0;;;5.5;;
45382;SDS011;42455;51.660;5.824;2023-08-12T22:25:27;8.0;;;5.0;;
45382;SDS011;42455;51.660;5.824;2023-08-12T22:30:33;7.0;;;4.0;;
45382;SDS011;42455;51.660;5.824;2023-08-12T22:35:39;7.0;;;3.0;;
45382;SDS011;42455;51.660;5.824;2023-08-12T22:40:45;5.0;;;3.0;;
45382;SDS011;42455;51.660;5.824;2023-08-12T22:45:51;6.0;;;3.0;;
45382;SDS011;42455;51.660;5.824;2023-08-12T22:50:58;7.0;;;4.0;;
45382;SDS011;42455;51.660;5.824;2023-08-12T22:56:04;7.0;;;4.0;;
45382;SDS011;42455;51.660;5.824;2023-08-12T23:01:10;8.0;;;5.0;;
45382;SDS011;42455;51.660;5.824;2023-08-12T23:06:16;8.0;;;5.0;;
45382;SDS011;42455;51.660;5.824;2023-08-12T23:11:24;7.0;;;3.0;;
45382;SDS011;42455;51.660;5.824;2023-08-12T23:16:29;7.0;;;3.0;;
45382;SDS011;42455;51.660;5.824;2023-08-12T23:21:35;6.0;;;3.0;;
45382;SDS011;42455;51.660;5.824;2023-08-12T23:26:41;7.0;;;3.0;;
45382;SDS011;42455;51.660;5.824;2023-08-12T23:31:47;5.0;;;3.0;;
45382;SDS011;42455;51.660;5.824;2023-08-12T23:42:00;6.0;;;3.0;;
45382;SDS011;42455;51.660;5.824;2023-08-12T23:47:06;6.0;;;2.0;;
45382;SDS011;42455;51.660;5.824;2023-08-12T23:52:12;5.0;;;3.0;;
45382;SDS011;42455;51.660;5.824;2023-08-12T23:57:18;7.0;;;2.0;;
